Tanana, AK

8:13 AM AKST on December 26, 2014 (GMT -0900)
Calhoun Memorial | Change Station
CLOSE
Current Station
Airport
Location: Tanana,
Elevation: 220 ft
Nearby Weather Stations
Active Advisory: Winter Weather Advisory

Elev 220 ft 65.18 °N, 152.11 °W | Updated 21 minutes ago

Overcast
Overcast
18 °F
Feels Like 9 °F
N
7
Wind Variable Wind from East

Today
High -- | Low -- °F
--% Chance of Precip.
Yesterday
High -- | Low -- °F
Precip. -- in
11:23 AM 2:55 PM
Waxing Crescent, 27% visible
Pressure 29.81 in
Visibility 9.0 miles
Clouds Mostly Cloudy 3000 ft
Overcast 4200 ft
Windchill 9 °F
Dew Point 14 °F
Humidity 84%
Rainfall 0.00 in
Snow Depth Not available.
UV 0 out of 12
Pollen Not available.
Air Quality Not available.
Flu Activity Not available.
METAR PATA 261652Z 10006KT 9SM BKN030 OVC042 M08/M10 A2979 RMK AO2 SNE48 SLP095 T10781100

More Conditions Fewer Conditions

Pressure 29.81 in
Visibility 9.0 miles
Clouds Mostly Cloudy 3000 ft
Overcast 4200 ft
Windchill 9 °F
Dew Point 14 °F
Humidity 84%
Rainfall 0.00 in
Snow Depth Not available.
UV 0 out of 12
Pollen Not available.
Air Quality Not available.
Flu Activity Not available.
METAR PATA 261652Z 10006KT 9SM BKN030 OVC042 M08/M10 A2979 RMK AO2 SNE48 SLP095 T10781100

More Conditions Fewer Conditions

10-Day Weather Forecast

Almanac

Astronomy

Dec. 26, 2014 Rise Set
Actual Time
Civil Twilight
Nautical Twilight
Astronomical Twilight
Moon
Length of Visible Light
Length of Day
Tomorrow will be .
, % of the Moon is Illuminated

Today's Extremes

State Highs State Lows

Community

WunderPhotos

Upload Photos

1,780,643 photos uploaded!

WunderBlogs® & News

Nearby

Air Quality

  Air Quality AQ Index Pollutant
Not available.

Snow Depth

Station Depth Elevation

Earthquake Activity

City Distance Mag. Time & Date
Minimum magnitude displayed is 2.5.

Coastal Water Temperatures

Place Temperature

Nearby Weather Stations